sensor_id;sensor_type;location;lat;lon;timestamp;P1;durP1;ratioP1;P2;durP2;ratioP2
41229;SDS011;26964;50.428;19.218;2023-04-25T00:00:05;4.3;;;2.7;;
41229;SDS011;26964;50.428;19.218;2023-04-25T00:01:04;3.4;;;2.6;;
41229;SDS011;26964;50.428;19.218;2023-04-25T00:02:04;5.1;;;3.4;;
41229;SDS011;26964;50.428;19.218;2023-04-25T00:03:04;3.8;;;2.8;;
41229;SDS011;26964;50.428;19.218;2023-04-25T00:04:04;5.0;;;3.0;;
41229;SDS011;26964;50.428;19.218;2023-04-25T00:06:04;4.5;;;3.0;;
41229;SDS011;26964;50.428;19.218;2023-04-25T00:07:04;5.0;;;3.2;;
41229;SDS011;26964;50.428;19.218;2023-04-25T00:08:04;4.4;;;3.0;;
41229;SDS011;26964;50.428;19.218;2023-04-25T00:09:05;4.8;;;3.1;;
41229;SDS011;26964;50.428;19.218;2023-04-25T00:10:05;5.5;;;3.4;;
41229;SDS011;26964;50.428;19.218;2023-04-25T00:11:04;4.0;;;2.8;;
41229;SDS011;26964;50.428;19.218;2023-04-25T00:13:04;4.9;;;3.1;;
41229;SDS011;26964;50.428;19.218;2023-04-25T00:14:04;3.7;;;2.5;;
41229;SDS011;26964;50.428;19.218;2023-04-25T00:15:05;4.4;;;3.0;;
41229;SDS011;26964;50.428;19.218;2023-04-25T00:16:04;4.0;;;3.1;;
41229;SDS011;26964;50.428;19.218;2023-04-25T00:17:04;5.2;;;2.9;;
41229;SDS011;26964;50.428;19.218;2023-04-25T00:18:04;3.8;;;2.7;;
41229;SDS011;26964;50.428;19.218;2023-04-25T00:19:04;4.1;;;2.7;;
41229;SDS011;26964;50.428;19.218;2023-04-25T00:20:05;3.9;;;2.8;;
41229;SDS011;26964;50.428;19.218;2023-04-25T00:21:04;5.3;;;3.3;;
41229;SDS011;26964;50.428;19.218;2023-04-25T00:22:04;6.5;;;3.5;;
41229;SDS011;26964;50.428;19.218;2023-04-25T00:23:04;5.1;;;3.5;;
41229;SDS011;26964;50.428;19.218;2023-04-25T00:24:05;5.1;;;3.3;;
41229;SDS011;26964;50.428;19.218;2023-04-25T00:25:05;4.8;;;3.0;;
41229;SDS011;26964;50.428;19.218;2023-04-25T00:26:04;4.6;;;3.4;;
41229;SDS011;26964;50.428;19.218;2023-04-25T00:27:04;5.1;;;3.4;;
41229;SDS011;26964;50.428;19.218;2023-04-25T00:28:04;5.4;;;3.4;;
41229;SDS011;26964;50.428;19.218;2023-04-25T00:29:04;4.9;;;3.5;;
41229;SDS011;26964;50.428;19.218;2023-04-25T00:30:05;5.0;;;3.4;;
41229;SDS011;26964;50.428;19.218;2023-04-25T00:31:04;6.4;;;3.8;;
41229;SDS011;26964;50.428;19.218;2023-04-25T00:32:04;5.3;;;3.7;;
41229;SDS011;26964;50.428;19.218;2023-04-25T00:33:04;4.8;;;3.6;;
41229;SDS011;26964;50.428;19.218;2023-04-25T00:34:05;6.8;;;4.3;;
41229;SDS011;26964;50.428;19.218;2023-04-25T00:35:04;4.6;;;3.8;;
41229;SDS011;26964;50.428;19.218;2023-04-25T00:36:05;5.9;;;4.4;;
41229;SDS011;26964;50.428;19.218;2023-04-25T00:37:04;5.0;;;3.9;;
41229;SDS011;26964;50.428;19.218;2023-04-25T00:38:04;5.9;;;4.5;;
41229;SDS011;26964;50.428;19.218;2023-04-25T00:39:04;5.4;;;4.3;;
41229;SDS011;26964;50.428;19.218;2023-04-25T00:40:13;5.4;;;4.3;;
41229;SDS011;26964;50.428;19.218;2023-04-25T00:41:04;7.0;;;4.8;;
41229;SDS011;26964;50.428;19.218;2023-04-25T00:42:04;5.0;;;4.2;;
41229;SDS011;26964;50.428;19.218;2023-04-25T00:43:04;7.5;;;4.7;;
41229;SDS011;26964;50.428;19.218;2023-04-25T00:44:04;6.3;;;5.0;;
41229;SDS011;26964;50.428;19.218;2023-04-25T00:45:05;6.0;;;4.9;;
41229;SDS011;26964;50.428;19.218;2023-04-25T00:46:04;6.5;;;5.4;;
41229;SDS011;26964;50.428;19.218;2023-04-25T00:47:04;7.6;;;5.7;;
41229;SDS011;26964;50.428;19.218;2023-04-25T00:48:04;8.3;;;5.6;;
41229;SDS011;26964;50.428;19.218;2023-04-25T00:49:04;6.7;;;5.4;;
41229;SDS011;26964;50.428;19.218;2023-04-25T00:50:05;8.4;;;6.2;;
41229;SDS011;26964;50.428;19.218;2023-04-25T00:51:04;7.7;;;6.5;;
41229;SDS011;26964;50.428;19.218;2023-04-25T00:52:04;7.6;;;6.7;;
41229;SDS011;26964;50.428;19.218;2023-04-25T00:53:04;9.4;;;7.1;;
41229;SDS011;26964;50.428;19.218;2023-04-25T00:54:04;8.4;;;7.3;;
41229;SDS011;26964;50.428;19.218;2023-04-25T00:55:05;8.0;;;6.7;;
41229;SDS011;26964;50.428;19.218;2023-04-25T00:56:04;10.3;;;7.6;;
41229;SDS011;26964;50.428;19.218;2023-04-25T00:57:04;8.6;;;7.0;;
41229;SDS011;26964;50.428;19.218;2023-04-25T00:58:04;8.5;;;7.2;;
41229;SDS011;26964;50.428;19.218;2023-04-25T00:59:04;9.5;;;7.5;;
41229;SDS011;26964;50.428;19.218;2023-04-25T01:00:05;10.1;;;8.0;;
41229;SDS011;26964;50.428;19.218;2023-04-25T01:01:04;9.0;;;7.4;;
41229;SDS011;26964;50.428;19.218;2023-04-25T01:02:04;10.5;;;7.5;;
41229;SDS011;26964;50.428;19.218;2023-04-25T01:03:04;8.6;;;6.6;;
41229;SDS011;26964;50.428;19.218;2023-04-25T01:04:04;10.2;;;7.6;;
41229;SDS011;26964;50.428;19.218;2023-04-25T01:05:05;8.5;;;7.1;;
41229;SDS011;26964;50.428;19.218;2023-04-25T01:06:04;9.1;;;7.2;;
41229;SDS011;26964;50.428;19.218;2023-04-25T01:07:04;9.4;;;7.3;;
41229;SDS011;26964;50.428;19.218;2023-04-25T01:08:04;8.3;;;7.1;;
41229;SDS011;26964;50.428;19.218;2023-04-25T01:09:04;9.8;;;7.2;;
41229;SDS011;26964;50.428;19.218;2023-04-25T01:10:05;9.0;;;6.9;;
41229;SDS011;26964;50.428;19.218;2023-04-25T01:11:04;10.0;;;7.1;;
41229;SDS011;26964;50.428;19.218;2023-04-25T01:12:04;8.8;;;6.9;;
41229;SDS011;26964;50.428;19.218;2023-04-25T01:13:04;7.8;;;6.8;;
41229;SDS011;26964;50.428;19.218;2023-04-25T01:14:04;9.3;;;7.2;;
41229;SDS011;26964;50.428;19.218;2023-04-25T01:15:05;9.6;;;6.8;;
41229;SDS011;26964;50.428;19.218;2023-04-25T01:16:05;8.4;;;7.2;;
41229;SDS011;26964;50.428;19.218;2023-04-25T01:17:04;9.7;;;7.5;;
41229;SDS011;26964;50.428;19.218;2023-04-25T01:18:04;8.1;;;6.5;;
41229;SDS011;26964;50.428;19.218;2023-04-25T01:19:05;8.7;;;6.9;;
41229;SDS011;26964;50.428;19.218;2023-04-25T01:20:05;8.0;;;6.9;;
41229;SDS011;26964;50.428;19.218;2023-04-25T01:22:04;9.5;;;7.5;;
41229;SDS011;26964;50.428;19.218;2023-04-25T01:23:04;9.7;;;7.1;;
41229;SDS011;26964;50.428;19.218;2023-04-25T01:24:04;8.4;;;7.1;;
41229;SDS011;26964;50.428;19.218;2023-04-25T01:25:04;8.7;;;7.6;;
41229;SDS011;26964;50.428;19.218;2023-04-25T01:26:04;9.5;;;7.6;;
41229;SDS011;26964;50.428;19.218;2023-04-25T01:27:04;11.6;;;7.7;;
41229;SDS011;26964;50.428;19.218;2023-04-25T01:28:04;9.0;;;7.6;;
41229;SDS011;26964;50.428;19.218;2023-04-25T01:29:04;11.6;;;7.8;;
41229;SDS011;26964;50.428;19.218;2023-04-25T01:30:05;9.4;;;7.9;;
41229;SDS011;26964;50.428;19.218;2023-04-25T01:31:04;9.9;;;8.0;;
41229;SDS011;26964;50.428;19.218;2023-04-25T01:32:04;10.0;;;7.5;;
41229;SDS011;26964;50.428;19.218;2023-04-25T01:33:04;11.1;;;8.4;;
41229;SDS011;26964;50.428;19.218;2023-04-25T01:34:04;9.3;;;7.4;;
41229;SDS011;26964;50.428;19.218;2023-04-25T01:35:05;10.2;;;7.9;;
41229;SDS011;26964;50.428;19.218;2023-04-25T01:36:05;10.5;;;8.1;;
41229;SDS011;26964;50.428;19.218;2023-04-25T01:37:04;9.8;;;8.2;;
41229;SDS011;26964;50.428;19.218;2023-04-25T01:38:04;10.9;;;8.8;;
41229;SDS011;26964;50.428;19.218;2023-04-25T01:39:05;11.2;;;8.2;;
41229;SDS011;26964;50.428;19.218;2023-04-25T01:40:05;10.9;;;8.3;;
41229;SDS011;26964;50.428;19.218;2023-04-25T01:41:27;9.3;;;7.8;;
41229;SDS011;26964;50.428;19.218;2023-04-25T01:42:04;11.1;;;8.6;;
41229;SDS011;26964;50.428;19.218;2023-04-25T01:43:04;11.1;;;8.5;;
41229;SDS011;26964;50.428;19.218;2023-04-25T01:44:04;9.6;;;8.1;;
41229;SDS011;26964;50.428;19.218;2023-04-25T01:45:05;9.7;;;8.1;;
41229;SDS011;26964;50.428;19.218;2023-04-25T01:46:04;9.8;;;8.0;;
41229;SDS011;26964;50.428;19.218;2023-04-25T01:47:04;10.9;;;8.6;;
41229;SDS011;26964;50.428;19.218;2023-04-25T01:48:04;9.6;;;8.1;;
41229;SDS011;26964;50.428;19.218;2023-04-25T01:49:05;11.1;;;8.8;;
41229;SDS011;26964;50.428;19.218;2023-04-25T01:50:05;10.3;;;8.5;;
41229;SDS011;26964;50.428;19.218;2023-04-25T01:51:04;10.9;;;9.2;;
41229;SDS011;26964;50.428;19.218;2023-04-25T01:52:04;11.6;;;9.2;;
41229;SDS011;26964;50.428;19.218;2023-04-25T01:53:04;10.4;;;8.5;;
41229;SDS011;26964;50.428;19.218;2023-04-25T01:54:04;9.0;;;8.1;;
41229;SDS011;26964;50.428;19.218;2023-04-25T01:55:05;10.3;;;8.3;;
41229;SDS011;26964;50.428;19.218;2023-04-25T01:56:05;10.0;;;8.4;;
41229;SDS011;26964;50.428;19.218;2023-04-25T01:57:04;9.8;;;8.0;;
41229;SDS011;26964;50.428;19.218;2023-04-25T01:59:04;10.5;;;8.5;;
41229;SDS011;26964;50.428;19.218;2023-04-25T02:00:05;10.3;;;8.0;;
41229;SDS011;26964;50.428;19.218;2023-04-25T02:01:04;11.7;;;8.2;;
41229;SDS011;26964;50.428;19.218;2023-04-25T02:02:04;9.8;;;7.9;;
41229;SDS011;26964;50.428;19.218;2023-04-25T02:03:04;9.7;;;8.2;;
41229;SDS011;26964;50.428;19.218;2023-04-25T02:04:04;10.3;;;7.7;;
41229;SDS011;26964;50.428;19.218;2023-04-25T02:05:04;12.3;;;8.6;;
41229;SDS011;26964;50.428;19.218;2023-04-25T02:06:04;11.3;;;7.7;;
41229;SDS011;26964;50.428;19.218;2023-04-25T02:07:04;9.9;;;8.0;;
41229;SDS011;26964;50.428;19.218;2023-04-25T02:08:04;9.7;;;7.4;;
41229;SDS011;26964;50.428;19.218;2023-04-25T02:09:04;10.1;;;8.2;;
41229;SDS011;26964;50.428;19.218;2023-04-25T02:10:04;11.8;;;8.1;;
41229;SDS011;26964;50.428;19.218;2023-04-25T02:11:04;9.3;;;7.6;;
41229;SDS011;26964;50.428;19.218;2023-04-25T02:12:04;10.0;;;7.9;;
41229;SDS011;26964;50.428;19.218;2023-04-25T02:13:04;9.6;;;7.6;;
41229;SDS011;26964;50.428;19.218;2023-04-25T02:14:04;9.9;;;7.7;;
41229;SDS011;26964;50.428;19.218;2023-04-25T02:15:05;10.0;;;7.2;;
41229;SDS011;26964;50.428;19.218;2023-04-25T02:16:04;11.8;;;8.9;;
41229;SDS011;26964;50.428;19.218;2023-04-25T02:17:04;10.8;;;7.9;;
41229;SDS011;26964;50.428;19.218;2023-04-25T02:18:04;10.7;;;7.5;;
41229;SDS011;26964;50.428;19.218;2023-04-25T02:19:04;9.7;;;8.4;;
41229;SDS011;26964;50.428;19.218;2023-04-25T02:20:05;10.0;;;7.6;;
41229;SDS011;26964;50.428;19.218;2023-04-25T02:21:04;9.4;;;7.4;;
41229;SDS011;26964;50.428;19.218;2023-04-25T02:22:04;11.3;;;8.3;;
41229;SDS011;26964;50.428;19.218;2023-04-25T02:23:04;10.6;;;8.0;;
41229;SDS011;26964;50.428;19.218;2023-04-25T02:24:04;10.9;;;8.4;;
41229;SDS011;26964;50.428;19.218;2023-04-25T02:25:05;9.2;;;7.5;;
41229;SDS011;26964;50.428;19.218;2023-04-25T02:26:04;11.3;;;7.8;;
41229;SDS011;26964;50.428;19.218;2023-04-25T02:27:04;11.2;;;8.0;;
41229;SDS011;26964;50.428;19.218;2023-04-25T02:28:08;10.0;;;7.7;;
41229;SDS011;26964;50.428;19.218;2023-04-25T02:29:04;8.4;;;6.9;;
41229;SDS011;26964;50.428;19.218;2023-04-25T02:30:05;10.4;;;7.6;;
41229;SDS011;26964;50.428;19.218;2023-04-25T02:31:04;8.3;;;6.8;;
41229;SDS011;26964;50.428;19.218;2023-04-25T02:32:04;10.6;;;7.1;;
41229;SDS011;26964;50.428;19.218;2023-04-25T02:33:04;11.0;;;7.0;;
41229;SDS011;26964;50.428;19.218;2023-04-25T02:34:04;9.2;;;7.1;;
41229;SDS011;26964;50.428;19.218;2023-04-25T02:35:04;10.4;;;7.6;;
41229;SDS011;26964;50.428;19.218;2023-04-25T02:36:04;7.9;;;6.3;;
41229;SDS011;26964;50.428;19.218;2023-04-25T02:37:04;9.9;;;6.8;;
41229;SDS011;26964;50.428;19.218;2023-04-25T02:38:04;9.6;;;6.7;;
41229;SDS011;26964;50.428;19.218;2023-04-25T02:39:04;9.8;;;7.3;;
41229;SDS011;26964;50.428;19.218;2023-04-25T02:40:05;8.6;;;6.4;;
41229;SDS011;26964;50.428;19.218;2023-04-25T02:41:08;9.2;;;7.3;;
41229;SDS011;26964;50.428;19.218;2023-04-25T02:42:04;9.7;;;7.0;;
41229;SDS011;26964;50.428;19.218;2023-04-25T02:43:04;8.6;;;6.6;;
41229;SDS011;26964;50.428;19.218;2023-04-25T02:44:04;9.5;;;6.5;;
41229;SDS011;26964;50.428;19.218;2023-04-25T02:45:04;7.5;;;5.7;;
41229;SDS011;26964;50.428;19.218;2023-04-25T02:46:04;9.2;;;5.9;;
41229;SDS011;26964;50.428;19.218;2023-04-25T02:47:04;9.2;;;6.2;;
41229;SDS011;26964;50.428;19.218;2023-04-25T02:48:04;8.8;;;6.5;;
41229;SDS011;26964;50.428;19.218;2023-04-25T02:49:04;8.5;;;6.6;;
41229;SDS011;26964;50.428;19.218;2023-04-25T02:50:05;9.5;;;6.0;;
41229;SDS011;26964;50.428;19.218;2023-04-25T02:51:04;8.0;;;5.8;;
41229;SDS011;26964;50.428;19.218;2023-04-25T02:52:04;8.7;;;6.1;;
41229;SDS011;26964;50.428;19.218;2023-04-25T02:53:04;11.1;;;5.8;;
41229;SDS011;26964;50.428;19.218;2023-04-25T02:54:04;7.3;;;5.5;;
41229;SDS011;26964;50.428;19.218;2023-04-25T02:55:05;6.9;;;5.5;;
41229;SDS011;26964;50.428;19.218;2023-04-25T02:56:04;7.4;;;4.8;;
41229;SDS011;26964;50.428;19.218;2023-04-25T02:57:04;7.8;;;5.4;;
41229;SDS011;26964;50.428;19.218;2023-04-25T02:58:04;6.5;;;4.8;;
41229;SDS011;26964;50.428;19.218;2023-04-25T02:59:04;5.6;;;4.3;;
41229;SDS011;26964;50.428;19.218;2023-04-25T03:00:05;7.7;;;5.1;;
41229;SDS011;26964;50.428;19.218;2023-04-25T03:01:04;6.7;;;4.8;;
41229;SDS011;26964;50.428;19.218;2023-04-25T03:02:04;6.8;;;4.7;;
41229;SDS011;26964;50.428;19.218;2023-04-25T03:03:04;6.5;;;4.7;;
41229;SDS011;26964;50.428;19.218;2023-04-25T03:04:04;7.4;;;4.2;;
41229;SDS011;26964;50.428;19.218;2023-04-25T03:05:04;7.6;;;4.4;;
41229;SDS011;26964;50.428;19.218;2023-04-25T03:06:04;5.3;;;4.0;;
41229;SDS011;26964;50.428;19.218;2023-04-25T03:07:04;7.1;;;4.5;;
41229;SDS011;26964;50.428;19.218;2023-04-25T03:08:04;6.3;;;4.2;;
41229;SDS011;26964;50.428;19.218;2023-04-25T03:09:04;5.6;;;3.3;;
41229;SDS011;26964;50.428;19.218;2023-04-25T03:10:05;4.3;;;3.3;;
41229;SDS011;26964;50.428;19.218;2023-04-25T03:11:04;8.1;;;3.8;;
41229;SDS011;26964;50.428;19.218;2023-04-25T03:12:04;5.0;;;3.2;;
41229;SDS011;26964;50.428;19.218;2023-04-25T03:13:04;4.8;;;3.1;;
41229;SDS011;26964;50.428;19.218;2023-04-25T03:14:04;7.3;;;4.1;;
41229;SDS011;26964;50.428;19.218;2023-04-25T03:15:05;6.4;;;3.0;;
41229;SDS011;26964;50.428;19.218;2023-04-25T03:16:04;4.3;;;3.0;;
41229;SDS011;26964;50.428;19.218;2023-04-25T03:17:04;4.9;;;3.2;;
41229;SDS011;26964;50.428;19.218;2023-04-25T03:18:04;4.3;;;3.1;;
41229;SDS011;26964;50.428;19.218;2023-04-25T03:19:04;6.1;;;3.4;;
41229;SDS011;26964;50.428;19.218;2023-04-25T03:20:05;5.0;;;3.5;;
41229;SDS011;26964;50.428;19.218;2023-04-25T03:21:04;5.1;;;3.1;;
41229;SDS011;26964;50.428;19.218;2023-04-25T03:22:04;9.9;;;3.4;;
41229;SDS011;26964;50.428;19.218;2023-04-25T03:23:04;4.3;;;2.8;;
41229;SDS011;26964;50.428;19.218;2023-04-25T03:24:04;3.8;;;2.7;;
41229;SDS011;26964;50.428;19.218;2023-04-25T03:25:04;4.4;;;2.9;;
41229;SDS011;26964;50.428;19.218;2023-04-25T03:26:04;4.9;;;3.6;;
41229;SDS011;26964;50.428;19.218;2023-04-25T03:27:04;5.0;;;3.0;;
41229;SDS011;26964;50.428;19.218;2023-04-25T03:28:04;6.0;;;3.2;;
41229;SDS011;26964;50.428;19.218;2023-04-25T03:29:04;3.7;;;2.9;;
41229;SDS011;26964;50.428;19.218;2023-04-25T03:30:05;4.8;;;3.0;;
41229;SDS011;26964;50.428;19.218;2023-04-25T03:31:04;4.8;;;3.1;;
41229;SDS011;26964;50.428;19.218;2023-04-25T03:32:04;7.3;;;3.4;;
41229;SDS011;26964;50.428;19.218;2023-04-25T03:33:04;5.1;;;3.2;;
41229;SDS011;26964;50.428;19.218;2023-04-25T03:34:04;6.1;;;3.4;;
41229;SDS011;26964;50.428;19.218;2023-04-25T03:35:04;5.4;;;2.8;;
41229;SDS011;26964;50.428;19.218;2023-04-25T03:36:04;5.9;;;3.3;;
41229;SDS011;26964;50.428;19.218;2023-04-25T03:37:04;5.8;;;3.3;;
41229;SDS011;26964;50.428;19.218;2023-04-25T03:38:04;4.2;;;3.0;;
41229;SDS011;26964;50.428;19.218;2023-04-25T03:39:04;4.0;;;3.3;;
41229;SDS011;26964;50.428;19.218;2023-04-25T03:40:04;4.5;;;3.1;;
41229;SDS011;26964;50.428;19.218;2023-04-25T03:41:04;4.7;;;3.2;;
41229;SDS011;26964;50.428;19.218;2023-04-25T03:42:04;4.6;;;3.2;;
41229;SDS011;26964;50.428;19.218;2023-04-25T03:43:04;4.2;;;2.7;;
41229;SDS011;26964;50.428;19.218;2023-04-25T03:44:04;4.3;;;3.0;;
41229;SDS011;26964;50.428;19.218;2023-04-25T03:45:04;4.3;;;2.9;;
41229;SDS011;26964;50.428;19.218;2023-04-25T03:46:04;5.1;;;3.2;;
41229;SDS011;26964;50.428;19.218;2023-04-25T03:47:04;5.4;;;3.3;;
41229;SDS011;26964;50.428;19.218;2023-04-25T03:48:04;4.3;;;2.9;;
41229;SDS011;26964;50.428;19.218;2023-04-25T03:49:04;4.5;;;3.0;;
41229;SDS011;26964;50.428;19.218;2023-04-25T03:50:05;5.1;;;2.8;;
41229;SDS011;26964;50.428;19.218;2023-04-25T03:51:04;5.7;;;2.9;;
41229;SDS011;26964;50.428;19.218;2023-04-25T03:52:04;3.9;;;2.7;;
41229;SDS011;26964;50.428;19.218;2023-04-25T03:53:04;5.4;;;3.2;;
41229;SDS011;26964;50.428;19.218;2023-04-25T03:54:04;4.0;;;2.8;;
41229;SDS011;26964;50.428;19.218;2023-04-25T03:55:04;3.3;;;2.6;;
41229;SDS011;26964;50.428;19.218;2023-04-25T03:56:04;5.8;;;2.9;;
41229;SDS011;26964;50.428;19.218;2023-04-25T03:57:04;4.8;;;2.7;;
41229;SDS011;26964;50.428;19.218;2023-04-25T03:58:04;11.3;;;3.7;;
41229;SDS011;26964;50.428;19.218;2023-04-25T04:00:04;8.1;;;2.9;;
41229;SDS011;26964;50.428;19.218;2023-04-25T04:01:04;4.7;;;2.8;;
41229;SDS011;26964;50.428;19.218;2023-04-25T04:02:04;4.6;;;2.9;;
41229;SDS011;26964;50.428;19.218;2023-04-25T04:03:04;4.3;;;2.8;;
41229;SDS011;26964;50.428;19.218;2023-04-25T04:04:04;4.6;;;3.0;;
41229;SDS011;26964;50.428;19.218;2023-04-25T04:05:04;5.0;;;2.8;;
41229;SDS011;26964;50.428;19.218;2023-04-25T04:06:04;12.3;;;3.1;;
41229;SDS011;26964;50.428;19.218;2023-04-25T04:07:04;6.4;;;3.1;;
41229;SDS011;26964;50.428;19.218;2023-04-25T04:08:04;5.3;;;3.1;;
41229;SDS011;26964;50.428;19.218;2023-04-25T04:09:04;4.8;;;3.1;;
41229;SDS011;26964;50.428;19.218;2023-04-25T04:10:04;4.1;;;2.5;;
41229;SDS011;26964;50.428;19.218;2023-04-25T04:11:04;5.3;;;3.0;;
41229;SDS011;26964;50.428;19.218;2023-04-25T04:12:04;4.8;;;3.2;;
41229;SDS011;26964;50.428;19.218;2023-04-25T04:13:04;3.7;;;2.8;;
41229;SDS011;26964;50.428;19.218;2023-04-25T04:14:04;4.8;;;3.1;;
41229;SDS011;26964;50.428;19.218;2023-04-25T04:15:04;4.7;;;3.2;;
41229;SDS011;26964;50.428;19.218;2023-04-25T04:16:04;5.6;;;3.0;;
41229;SDS011;26964;50.428;19.218;2023-04-25T04:17:04;7.0;;;3.0;;
41229;SDS011;26964;50.428;19.218;2023-04-25T04:18:04;3.9;;;3.0;;
41229;SDS011;26964;50.428;19.218;2023-04-25T04:19:04;5.7;;;3.4;;
41229;SDS011;26964;50.428;19.218;2023-04-25T04:20:05;4.6;;;3.2;;
41229;SDS011;26964;50.428;19.218;2023-04-25T04:21:04;4.0;;;2.8;;
41229;SDS011;26964;50.428;19.218;2023-04-25T04:22:04;4.2;;;3.1;;
41229;SDS011;26964;50.428;19.218;2023-04-25T04:23:04;4.4;;;2.9;;
41229;SDS011;26964;50.428;19.218;2023-04-25T04:24:04;5.3;;;3.0;;
41229;SDS011;26964;50.428;19.218;2023-04-25T04:25:04;5.0;;;2.9;;
41229;SDS011;26964;50.428;19.218;2023-04-25T04:26:04;4.1;;;3.0;;
41229;SDS011;26964;50.428;19.218;2023-04-25T04:27:04;4.1;;;2.9;;
41229;SDS011;26964;50.428;19.218;2023-04-25T04:28:04;4.4;;;3.2;;
41229;SDS011;26964;50.428;19.218;2023-04-25T04:29:04;4.9;;;2.7;;
41229;SDS011;26964;50.428;19.218;2023-04-25T04:30:04;5.9;;;3.6;;
41229;SDS011;26964;50.428;19.218;2023-04-25T04:31:04;5.6;;;3.3;;
41229;SDS011;26964;50.428;19.218;2023-04-25T04:32:04;5.4;;;3.3;;
41229;SDS011;26964;50.428;19.218;2023-04-25T04:33:04;10.0;;;3.7;;
41229;SDS011;26964;50.428;19.218;2023-04-25T04:34:04;6.0;;;3.8;;
41229;SDS011;26964;50.428;19.218;2023-04-25T04:35:04;6.2;;;3.9;;
41229;SDS011;26964;50.428;19.218;2023-04-25T04:36:04;8.8;;;4.2;;
41229;SDS011;26964;50.428;19.218;2023-04-25T04:37:04;4.7;;;3.3;;
41229;SDS011;26964;50.428;19.218;2023-04-25T04:38:04;6.7;;;3.7;;
41229;SDS011;26964;50.428;19.218;2023-04-25T04:39:05;5.6;;;3.8;;
41229;SDS011;26964;50.428;19.218;2023-04-25T04:40:04;4.9;;;3.8;;
41229;SDS011;26964;50.428;19.218;2023-04-25T04:41:04;6.6;;;4.0;;
41229;SDS011;26964;50.428;19.218;2023-04-25T04:42:04;6.5;;;3.9;;
41229;SDS011;26964;50.428;19.218;2023-04-25T04:43:04;6.6;;;4.5;;
41229;SDS011;26964;50.428;19.218;2023-04-25T04:44:04;6.4;;;4.4;;
41229;SDS011;26964;50.428;19.218;2023-04-25T04:45:04;5.5;;;4.2;;
41229;SDS011;26964;50.428;19.218;2023-04-25T04:46:04;6.6;;;4.6;;
41229;SDS011;26964;50.428;19.218;2023-04-25T04:47:04;7.1;;;4.1;;
41229;SDS011;26964;50.428;19.218;2023-04-25T04:48:04;5.5;;;4.4;;
41229;SDS011;26964;50.428;19.218;2023-04-25T04:49:04;6.2;;;4.2;;
41229;SDS011;26964;50.428;19.218;2023-04-25T04:50:04;6.6;;;4.6;;
41229;SDS011;26964;50.428;19.218;2023-04-25T04:51:04;6.8;;;4.7;;
41229;SDS011;26964;50.428;19.218;2023-04-25T04:52:04;7.5;;;5.1;;
41229;SDS011;26964;50.428;19.218;2023-04-25T04:53:04;6.4;;;4.7;;
41229;SDS011;26964;50.428;19.218;2023-04-25T04:54:04;6.1;;;4.3;;
41229;SDS011;26964;50.428;19.218;2023-04-25T04:55:04;6.4;;;5.0;;
41229;SDS011;26964;50.428;19.218;2023-04-25T04:56:04;8.2;;;5.2;;
41229;SDS011;26964;50.428;19.218;2023-04-25T04:57:04;7.2;;;5.4;;
41229;SDS011;26964;50.428;19.218;2023-04-25T04:58:04;8.4;;;5.2;;
41229;SDS011;26964;50.428;19.218;2023-04-25T04:59:04;6.8;;;5.3;;
41229;SDS011;26964;50.428;19.218;2023-04-25T05:00:04;7.5;;;4.7;;
41229;SDS011;26964;50.428;19.218;2023-04-25T05:01:04;5.9;;;4.8;;
41229;SDS011;26964;50.428;19.218;2023-04-25T05:02:04;7.7;;;4.7;;
41229;SDS011;26964;50.428;19.218;2023-04-25T05:03:04;6.3;;;5.0;;
41229;SDS011;26964;50.428;19.218;2023-04-25T05:04:04;6.5;;;4.1;;
41229;SDS011;26964;50.428;19.218;2023-04-25T05:05:04;8.7;;;4.9;;
41229;SDS011;26964;50.428;19.218;2023-04-25T05:06:04;5.6;;;4.1;;
41229;SDS011;26964;50.428;19.218;2023-04-25T05:07:04;6.5;;;4.7;;
41229;SDS011;26964;50.428;19.218;2023-04-25T05:08:04;7.1;;;4.5;;
41229;SDS011;26964;50.428;19.218;2023-04-25T05:09:04;6.0;;;4.3;;
41229;SDS011;26964;50.428;19.218;2023-04-25T05:10:04;11.9;;;4.5;;
41229;SDS011;26964;50.428;19.218;2023-04-25T05:11:04;6.6;;;5.1;;
41229;SDS011;26964;50.428;19.218;2023-04-25T05:12:04;5.6;;;4.3;;
41229;SDS011;26964;50.428;19.218;2023-04-25T05:13:04;7.4;;;4.5;;
41229;SDS011;26964;50.428;19.218;2023-04-25T05:15:04;6.8;;;4.6;;
41229;SDS011;26964;50.428;19.218;2023-04-25T05:16:04;6.9;;;4.9;;
41229;SDS011;26964;50.428;19.218;2023-04-25T05:17:04;6.0;;;4.1;;
41229;SDS011;26964;50.428;19.218;2023-04-25T05:18:04;6.2;;;4.4;;
41229;SDS011;26964;50.428;19.218;2023-04-25T05:19:04;4.8;;;4.2;;
41229;SDS011;26964;50.428;19.218;2023-04-25T05:20:04;6.5;;;4.3;;
41229;SDS011;26964;50.428;19.218;2023-04-25T05:21:04;6.4;;;4.6;;
41229;SDS011;26964;50.428;19.218;2023-04-25T05:22:04;7.3;;;4.5;;
41229;SDS011;26964;50.428;19.218;2023-04-25T05:23:04;7.0;;;4.6;;
41229;SDS011;26964;50.428;19.218;2023-04-25T05:24:04;7.4;;;4.6;;
41229;SDS011;26964;50.428;19.218;2023-04-25T05:25:04;7.2;;;4.8;;
41229;SDS011;26964;50.428;19.218;2023-04-25T05:26:04;7.2;;;4.4;;
41229;SDS011;26964;50.428;19.218;2023-04-25T05:27:04;6.3;;;4.4;;
41229;SDS011;26964;50.428;19.218;2023-04-25T05:28:04;5.9;;;4.3;;
41229;SDS011;26964;50.428;19.218;2023-04-25T05:29:04;7.9;;;5.7;;
41229;SDS011;26964;50.428;19.218;2023-04-25T05:30:04;11.7;;;8.1;;
41229;SDS011;26964;50.428;19.218;2023-04-25T05:31:04;8.3;;;5.7;;
41229;SDS011;26964;50.428;19.218;2023-04-25T05:32:05;9.0;;;6.5;;
41229;SDS011;26964;50.428;19.218;2023-04-25T05:33:04;14.1;;;9.4;;
41229;SDS011;26964;50.428;19.218;2023-04-25T05:34:04;13.8;;;10.1;;
41229;SDS011;26964;50.428;19.218;2023-04-25T05:35:04;17.1;;;11.9;;
41229;SDS011;26964;50.428;19.218;2023-04-25T05:36:04;26.3;;;17.9;;
41229;SDS011;26964;50.428;19.218;2023-04-25T05:37:04;24.0;;;15.5;;
41229;SDS011;26964;50.428;19.218;2023-04-25T05:38:04;23.2;;;14.6;;
41229;SDS011;26964;50.428;19.218;2023-04-25T05:39:04;28.8;;;19.0;;
41229;SDS011;26964;50.428;19.218;2023-04-25T05:40:05;19.1;;;12.7;;
41229;SDS011;26964;50.428;19.218;2023-04-25T05:41:04;20.0;;;13.7;;
41229;SDS011;26964;50.428;19.218;2023-04-25T05:42:04;17.7;;;11.1;;
41229;SDS011;26964;50.428;19.218;2023-04-25T05:43:04;11.4;;;8.7;;
41229;SDS011;26964;50.428;19.218;2023-04-25T05:44:04;10.4;;;6.9;;
41229;SDS011;26964;50.428;19.218;2023-04-25T05:45:04;7.6;;;6.0;;
41229;SDS011;26964;50.428;19.218;2023-04-25T05:46:04;6.7;;;5.4;;
41229;SDS011;26964;50.428;19.218;2023-04-25T05:47:04;6.4;;;5.1;;
41229;SDS011;26964;50.428;19.218;2023-04-25T05:48:04;5.5;;;4.4;;
41229;SDS011;26964;50.428;19.218;2023-04-25T05:49:04;5.6;;;4.6;;
41229;SDS011;26964;50.428;19.218;2023-04-25T05:50:05;5.4;;;4.5;;
41229;SDS011;26964;50.428;19.218;2023-04-25T05:51:04;9.0;;;5.5;;
41229;SDS011;26964;50.428;19.218;2023-04-25T05:52:04;7.0;;;5.5;;
41229;SDS011;26964;50.428;19.218;2023-04-25T05:53:04;8.3;;;5.7;;
41229;SDS011;26964;50.428;19.218;2023-04-25T05:54:04;9.5;;;5.5;;
41229;SDS011;26964;50.428;19.218;2023-04-25T05:55:04;12.4;;;5.6;;
41229;SDS011;26964;50.428;19.218;2023-04-25T05:56:04;7.3;;;5.5;;
41229;SDS011;26964;50.428;19.218;2023-04-25T05:57:04;7.7;;;4.6;;
41229;SDS011;26964;50.428;19.218;2023-04-25T05:58:04;6.7;;;4.6;;
41229;SDS011;26964;50.428;19.218;2023-04-25T05:59:04;7.5;;;5.4;;
41229;SDS011;26964;50.428;19.218;2023-04-25T06:00:04;6.8;;;5.4;;
41229;SDS011;26964;50.428;19.218;2023-04-25T06:01:04;6.5;;;5.5;;
41229;SDS011;26964;50.428;19.218;2023-04-25T06:02:04;7.0;;;5.5;;
41229;SDS011;26964;50.428;19.218;2023-04-25T06:03:04;8.3;;;4.6;;
41229;SDS011;26964;50.428;19.218;2023-04-25T06:04:05;6.8;;;4.8;;
41229;SDS011;26964;50.428;19.218;2023-04-25T06:05:04;10.4;;;4.9;;
41229;SDS011;26964;50.428;19.218;2023-04-25T06:06:04;7.0;;;4.9;;
41229;SDS011;26964;50.428;19.218;2023-04-25T06:07:04;6.5;;;5.0;;
41229;SDS011;26964;50.428;19.218;2023-04-25T06:08:04;5.7;;;4.9;;
41229;SDS011;26964;50.428;19.218;2023-04-25T06:09:04;6.9;;;4.6;;
41229;SDS011;26964;50.428;19.218;2023-04-25T06:10:04;5.2;;;4.5;;
41229;SDS011;26964;50.428;19.218;2023-04-25T06:11:04;8.1;;;4.3;;